24h
KLIENDITUGI:
Saartelennuliinid: +372 58856336 (24/7)
Estairi piletikassa lennujaamas:
+372 6058887; +372 55603687

05.04.2018 hommikune Transaviabaltika lend KTB670 kell 07:00 (kohalik aeg) Tallinn - Kärdla väljalend ja KTB671 kell 07:45 Kärdla – Tallinn väljalend on tühistatud. Lennu tühistamise põhjustab udu Kärdla lennuväljal. Reisijatele tagastatakse piletiraha või broneeritakse piletid tasuta teisele lennule.

EEKA Kärdla lennuväli FCEO32 EETN 050300

TAF EEKA 050300Z 0504/0510 VRB02KT 0600 FG VV002

TEMPO 0504/0507 1500 BR BECMG 0507/0509 16010KT 4000 BR BKN004=

METAR EEKA 050550Z 10005KT 0400 FG VV002 01/// Q1003=
Kuupäev: 
05/04/2018